New Orleans, Louisiana
Traffic Map
Current Weather Conditions
New Orleans, Louisiana
Scattered Clouds
Scattered Clouds
79°
Feels Like: 80°
Wind Chill: 79° Ceiling: Unl
Heat Index: 80° Visibility: 10mi
Dew Point: 61° Wind: 16mph
Humidity: 54% Direction: 220° (SW)
Pressure: 30.03in Gusts: 0mph
Raw Report DataKNEW 012153Z 22014KT 10SM SCT042 26/16 A3003 RMK AO2 SLP162 T02610161
Traffic Incident Summary
Active as of:
Severity:
Category:
InformationThere was an issue retrieving the traffic information for this location. Please try a different location or try again shortly.
Advertisements
Track Severe Weather on mobile